Airfield :







YOU CAN JOIN US ON...

 
LOGIN :

Register | Disclaimer

   EN    FR    IT 

 









Legend :    VFR   Marginal VFR   IFR   Intensive IFR   Very Intensive IFR
Visi :
Ceiling :
>= 8 km
>= 3000ft
5 to 8 km
1000 to 3000 ft
1500m to 5 km
500 to 1000 ft
800 to 1500m
200 to 500 ft
< 800m
< 200 ft
Symbols :   Thunderstorms  Fog  Heavy snow  Heavy precipitations  Wind > 20 kt






- Airport Elevation : 160 ft
- IATA code : YYG


CYYG - Charlottetown

CURRENT METAR :
  • 110800Z 28012G18KT 15SM -SHRASN BKN010 OVC048 02/01 A2987 RMK SC5SC3 CVCTV CLD EMBD SLP117

EXPIRED METARs :
  • 110700Z 27012G24KT 15SM -SHRA OVC048 04/02 A2983 RMK SC8 CVCTV CLD EMBD PRESRR SLP103
  • 110600Z 29012G21KT 10SM -SHRA SCT008 OVC023 07/05 A2978 RMK SF4SC4 CIG RAG CVCTV CLD EMBD PRESRR SLP086

TAF TAF CYYG
Valid from the 11 at 06:00 until the 11 at 18:00 UTC


110538Z 1106/1118 25015G25KT 4SM -SHRA BR BKN008 OVC025
TEMPO 1106/1110 P6SM -SHRA SCT008 BKN025 OVC070
BECMG 1106/1108 28018G28KT
FM111000 30015G25KT 11/2SM -SHSNRA VV007
TEMPO 1110/1111 6SM -SHSNRAPL BR OVC010
FM111100 34015G25KT 1SM -SHSN VV008
TEMPO 1111/1118 3SM -SN OVC015
BECMG 1116/1118 34015KT RMK NXT FCST BY 111200Z



MET'MAP, your aeronautical weather chart ! - Copyright ORBIFLY December 2007 - Disclaimer

ORBIFLY MET'MAP TEAM :

Programming & Development : Alexandra Zaïnal
Concept & original design : Baudouin d'Aumeries
Assistance for programming : Marc-Olivier Méhu
Technical & hardware support : Manuel Goepfert

Contact : metmap@orbifly.com




SOURCES & CREDITS :

   NOAA